Aviation Digital Data Service (ADDS)

Output produced by METARs form (1735 UTC 19 April 2015)
found at http://www.aviationweather.gov/adds/metars/
 
KSAV 191709Z 18010KT 10SM FEW008 BKN015 BKN025 OVC130 26/21 A2991 RMK AO2